OPKC

Jinnah International Airport

Karachi, Pakistan
METAR OPKC 192155Z 36008KT 6000 NSC 23/08 Q1015 NOSIG
Observed Flight Rules
Nov-19 @ 21:55 UTC (32 minutes ago) Marginal Visual Flight Rules
Wind Visibility Clouds
360° at 8 knots 6,003 meters
  • Clear skies
Temperatures Readings
Current 23°C / 73°F
Dewpoint 8°C / 46°F
Humidity 38%
Altimeter 29.97" Hg
Pressure 1015 hPa
Elevation 22
METAR OPKC 192155Z 36008KT 6000 NSC 23/08 Q1015 NOSIG
Observed Flight Rules
Nov-19 @ 21:55 UTC
(32 minutes ago)
MVFR
Wind Visibility
360° at 8 knots 6,003 meters
Clouds
  • Clear skies
Temperature Dewpoint
23°C / 73°F 8°C / 46°F
Humidity Altimeter Pressure
38% 29.97" Hg 1015 hPa